createdAt,value
2023-05-14T00:01:16.038Z,75.08
2023-05-14T00:03:42.742Z,75.90
2023-05-14T00:06:10.931Z,75.64
2023-05-14T00:08:37.490Z,75.99
2023-05-14T00:11:08.996Z,76.12
2023-05-14T00:13:37.504Z,75.92
2023-05-14T00:16:04.293Z,76.39
2023-05-14T00:18:30.993Z,76.60
2023-05-14T00:21:00.170Z,76.58
2023-05-14T00:23:26.750Z,76.44
2023-05-14T00:25:53.250Z,76.39
2023-05-14T00:28:20.335Z,77.05
2023-05-14T00:30:47.147Z,77.22
2023-05-14T00:33:16.960Z,76.87
2023-05-14T00:35:43.588Z,77.42
2023-05-14T00:38:11.165Z,76.88
2023-05-14T00:40:38.142Z,77.03
2023-05-14T00:43:04.722Z,77.75
2023-05-14T00:45:31.373Z,77.52
2023-05-14T00:47:57.990Z,77.77
2023-05-14T00:50:24.940Z,77.62
2023-05-14T00:52:51.905Z,77.53
2023-05-14T00:55:19.164Z,77.97
2023-05-14T00:57:46.556Z,78.03
2023-05-14T01:00:13.867Z,78.02
2023-05-14T01:02:40.638Z,78.45
2023-05-14T01:05:08.467Z,78.64
2023-05-14T01:07:41.896Z,78.81
2023-05-14T01:10:11.332Z,79.15
2023-05-14T01:13:07.385Z,79.27
2023-05-14T01:15:36.181Z,79.10
2023-05-14T01:18:13.504Z,79.34
2023-05-14T01:20:42.853Z,79.27
2023-05-14T01:23:12.253Z,80.00
2023-05-14T01:25:38.816Z,79.62
2023-05-14T01:28:19.661Z,79.90
2023-05-14T01:30:57.317Z,80.01
2023-05-14T01:33:30.729Z,79.92
2023-05-14T01:35:58.506Z,79.67
2023-05-14T01:38:28.574Z,79.83
2023-05-14T01:40:56.714Z,80.52
2023-05-14T01:43:23.974Z,80.68
2023-05-14T01:45:50.721Z,80.15
2023-05-14T01:48:17.785Z,80.73
2023-05-14T01:50:44.294Z,80.47
2023-05-14T01:53:10.851Z,81.01
2023-05-14T01:55:37.372Z,80.94
2023-05-14T01:58:03.834Z,81.12
2023-05-14T02:00:36.572Z,80.45
2023-05-14T02:03:03.280Z,80.95
2023-05-14T02:05:30.073Z,80.82
2023-05-14T02:07:56.741Z,80.59
2023-05-14T02:10:23.501Z,81.19
2023-05-14T02:12:50.550Z,81.22
2023-05-14T02:15:17.308Z,80.86
2023-05-14T02:17:43.919Z,80.53
2023-05-14T02:20:10.884Z,81.14
2023-05-14T02:22:39.655Z,80.68
2023-05-14T02:25:07.206Z,80.95
2023-05-14T02:27:35.420Z,81.08
2023-05-14T02:30:02.096Z,80.80
2023-05-14T02:32:28.860Z,81.61
2023-05-14T02:34:55.487Z,81.05
2023-05-14T02:37:22.205Z,81.11
2023-05-14T02:39:49.424Z,80.82
2023-05-14T02:42:16.062Z,81.23
2023-05-14T02:44:42.643Z,81.17
2023-05-14T02:47:10.863Z,81.46
2023-05-14T02:49:37.446Z,81.61
2023-05-14T02:52:04.235Z,81.67
2023-05-14T02:54:30.834Z,82.15
2023-05-14T02:56:57.404Z,82.07
2023-05-14T02:59:24.902Z,82.52
2023-05-14T03:01:52.130Z,81.83
2023-05-14T03:04:19.327Z,82.40
2023-05-14T03:06:45.840Z,82.20
2023-05-14T03:09:12.511Z,82.70
2023-05-14T03:11:39.173Z,82.27
2023-05-14T03:14:05.892Z,82.51
2023-05-14T03:16:32.474Z,82.57
2023-05-14T03:18:59.066Z,82.72
2023-05-14T03:21:26.222Z,82.41
2023-05-14T03:23:53.792Z,82.54
2023-05-14T03:26:21.717Z,82.63
2023-05-14T03:28:48.681Z,83.16
2023-05-14T03:31:15.841Z,83.01
2023-05-14T03:33:44.206Z,82.63
2023-05-14T03:36:10.825Z,83.13
2023-05-14T03:38:37.445Z,82.84
2023-05-14T03:41:03.930Z,83.31
2023-05-14T03:43:30.773Z,82.99
2023-05-14T03:45:57.343Z,82.62
2023-05-14T03:48:24.004Z,83.04
2023-05-14T03:50:51.296Z,83.74
2023-05-14T03:53:18.028Z,83.01
2023-05-14T03:55:44.573Z,83.60
2023-05-14T03:58:14.131Z,83.27
2023-05-14T04:00:42.058Z,83.45
2023-05-14T04:03:09.170Z,83.59
2023-05-14T04:05:36.333Z,83.38
2023-05-14T04:08:02.958Z,83.12
2023-05-14T04:10:29.929Z,83.23
2023-05-14T04:12:56.432Z,83.11
2023-05-14T04:15:24.515Z,83.20
2023-05-14T04:17:51.200Z,83.04
2023-05-14T04:20:17.769Z,83.37
2023-05-14T04:22:44.521Z,83.81
2023-05-14T04:25:11.266Z,83.00
2023-05-14T04:27:37.717Z,83.30
2023-05-14T04:30:04.873Z,83.50
2023-05-14T04:32:31.535Z,83.32
2023-05-14T04:34:58.099Z,83.40
2023-05-14T04:37:24.545Z,82.84
2023-05-14T04:39:51.270Z,83.10
2023-05-14T04:42:20.117Z,82.72
2023-05-14T04:44:51.726Z,83.14
2023-05-14T04:47:18.568Z,82.55
2023-05-14T04:49:45.293Z,82.69
2023-05-14T04:52:12.128Z,83.00
2023-05-14T04:54:38.685Z,82.25
2023-05-14T04:57:07.522Z,82.42
2023-05-14T04:59:37.025Z,81.89
2023-05-14T05:02:03.675Z,81.89
2023-05-14T05:04:30.529Z,81.50
2023-05-14T05:06:57.069Z,81.44
2023-05-14T05:09:23.755Z,80.97
2023-05-14T05:11:50.212Z,80.42
2023-05-14T05:14:16.879Z,79.26
2023-05-14T05:16:43.542Z,77.61
2023-05-14T05:19:10.266Z,76.47
2023-05-14T05:21:39.384Z,74.74
2023-05-14T05:24:06.260Z,73.63
2023-05-14T05:26:32.741Z,73.37
2023-05-14T05:28:59.353Z,74.23
2023-05-14T05:31:25.989Z,74.98
2023-05-14T05:33:52.439Z,74.65
2023-05-14T05:36:18.894Z,73.36
2023-05-14T05:38:45.539Z,72.99
2023-05-14T05:41:12.197Z,71.96
2023-05-14T05:43:38.717Z,72.10
2023-05-14T05:46:05.187Z,73.88
2023-05-14T05:48:31.794Z,74.85
2023-05-14T05:50:58.494Z,75.59
2023-05-14T05:53:24.955Z,76.32
2023-05-14T05:55:54.387Z,77.05
2023-05-14T05:58:20.941Z,77.10
2023-05-14T06:00:47.488Z,78.00
2023-05-14T06:03:14.175Z,77.94
2023-05-14T06:05:40.960Z,78.02
2023-05-14T06:08:07.668Z,78.47
2023-05-14T06:10:35.035Z,78.47
2023-05-14T06:13:01.745Z,78.68
2023-05-14T06:15:28.236Z,78.84
2023-05-14T06:18:03.890Z,78.90
2023-05-14T06:20:30.472Z,78.46
2023-05-14T06:22:56.953Z,78.66
2023-05-14T06:25:23.426Z,78.30
2023-05-14T06:27:49.908Z,78.05
2023-05-14T06:30:16.430Z,77.92
2023-05-14T06:32:43.175Z,77.02
2023-05-14T06:35:13.108Z,76.87
2023-05-14T06:37:39.705Z,76.79
2023-05-14T06:40:09.082Z,76.65
2023-05-14T06:42:35.578Z,76.29
2023-05-14T06:45:02.264Z,76.43
2023-05-14T06:47:32.012Z,75.96
2023-05-14T06:49:58.793Z,75.92
2023-05-14T06:52:25.743Z,75.84
2023-05-14T06:54:52.288Z,75.37
2023-05-14T06:57:18.797Z,75.49
2023-05-14T06:59:45.368Z,74.26
2023-05-14T07:02:12.483Z,73.84
2023-05-14T07:04:39.076Z,74.14
2023-05-14T07:07:05.898Z,74.74
2023-05-14T07:09:32.360Z,74.30
2023-05-14T07:11:58.949Z,73.87
2023-05-14T07:14:26.717Z,73.46
2023-05-14T07:16:53.219Z,72.61
2023-05-14T07:19:19.756Z,71.96
2023-05-14T07:21:46.259Z,70.94
2023-05-14T07:24:12.707Z,71.99
2023-05-14T07:26:39.404Z,69.80
2023-05-14T07:29:06.398Z,70.40
2023-05-14T07:31:33.544Z,70.71
2023-05-14T07:33:59.989Z,71.33
2023-05-14T07:36:29.775Z,71.15
2023-05-14T07:38:56.362Z,71.01
2023-05-14T07:41:22.874Z,71.46
2023-05-14T07:43:49.674Z,72.18
2023-05-14T07:46:16.578Z,70.18
2023-05-14T07:48:43.214Z,70.87
2023-05-14T07:51:09.709Z,71.20
2023-05-14T07:53:36.200Z,71.59
2023-05-14T07:56:02.684Z,70.03
2023-05-14T07:58:30.055Z,69.57
2023-05-14T08:00:57.709Z,69.90
2023-05-14T08:03:24.451Z,69.09
2023-05-14T08:05:52.517Z,69.13
2023-05-14T08:08:22.742Z,68.06
2023-05-14T08:10:51.511Z,69.65
2023-05-14T08:13:18.319Z,68.01
2023-05-14T08:15:44.793Z,68.06
2023-05-14T08:18:11.294Z,67.57
2023-05-14T08:20:37.802Z,68.07
2023-05-14T08:23:04.388Z,68.92
2023-05-14T08:25:31.093Z,67.72
2023-05-14T08:27:59.738Z,68.48
2023-05-14T08:30:26.823Z,67.63
2023-05-14T08:32:53.879Z,67.60
2023-05-14T08:35:20.458Z,67.94
2023-05-14T08:37:47.006Z,65.12
2023-05-14T08:40:13.650Z,64.80
2023-05-14T08:42:45.218Z,64.92
2023-05-14T08:45:25.865Z,66.45
2023-05-14T08:47:55.848Z,65.75
2023-05-14T08:50:23.769Z,64.30
2023-05-14T08:52:51.664Z,63.68
2023-05-14T08:55:19.065Z,62.19
2023-05-14T08:57:46.473Z,61.83
2023-05-14T09:00:16.188Z,61.21
2023-05-14T09:02:44.821Z,61.77
2023-05-14T09:05:12.561Z,63.01
2023-05-14T09:07:39.199Z,61.98
2023-05-14T09:10:06.427Z,61.54
2023-05-14T09:12:32.888Z,60.01
2023-05-14T09:14:59.313Z,59.44
2023-05-14T09:17:27.994Z,59.44
2023-05-14T09:19:54.834Z,59.33
2023-05-14T09:22:21.629Z,59.71
2023-05-14T09:25:06.504Z,60.23
2023-05-14T09:27:35.204Z,59.25
2023-05-14T09:30:10.060Z,60.55
2023-05-14T09:32:38.224Z,59.22
2023-05-14T09:35:18.997Z,59.01
2023-05-14T09:37:48.352Z,58.73
2023-05-14T09:40:15.798Z,57.71
2023-05-14T09:42:42.392Z,59.95
2023-05-14T09:45:10.215Z,57.56
2023-05-14T09:47:38.317Z,57.08
2023-05-14T09:50:06.359Z,59.05
2023-05-14T09:52:33.274Z,57.44
2023-05-14T09:55:00.603Z,57.74
2023-05-14T09:57:27.387Z,56.60
2023-05-14T09:59:54.207Z,56.76
2023-05-14T10:02:37.642Z,56.01
2023-05-14T10:05:08.268Z,56.69
2023-05-14T10:07:49.594Z,56.67
2023-05-14T10:10:19.603Z,56.07
2023-05-14T10:12:57.651Z,54.78
2023-05-14T10:15:59.112Z,54.46
2023-05-14T10:18:31.791Z,55.08
2023-05-14T10:21:05.780Z,55.86
2023-05-14T10:23:32.542Z,55.46
2023-05-14T10:25:59.765Z,54.55
2023-05-14T10:28:26.742Z,53.36
2023-05-14T10:30:54.403Z,56.03
2023-05-14T10:33:21.081Z,55.33
2023-05-14T10:36:07.476Z,54.88
2023-05-14T10:38:36.162Z,54.01
2023-05-14T10:41:07.095Z,53.85
2023-05-14T10:43:38.510Z,55.09
2023-05-14T10:46:05.854Z,53.60
2023-05-14T10:48:33.434Z,54.40
2023-05-14T10:51:01.491Z,51.38
2023-05-14T10:53:33.698Z,53.19
2023-05-14T10:56:11.778Z,52.02
2023-05-14T10:58:40.004Z,51.17
2023-05-14T11:01:08.259Z,52.12
2023-05-14T11:03:42.593Z,51.77
2023-05-14T11:06:11.127Z,52.35
2023-05-14T11:08:38.839Z,52.34
2023-05-14T11:11:06.610Z,53.37
2023-05-14T11:13:34.738Z,52.15
2023-05-14T11:16:11.986Z,52.65
2023-05-14T11:18:53.778Z,50.78
2023-05-14T11:21:20.701Z,50.51
2023-05-14T11:23:47.203Z,49.78
2023-05-14T11:26:13.773Z,50.10
2023-05-14T11:28:40.400Z,50.21
2023-05-14T11:31:07.276Z,49.44
2023-05-14T11:33:33.758Z,50.11
2023-05-14T11:36:00.222Z,50.84
2023-05-14T11:38:26.668Z,49.45
2023-05-14T11:40:58.561Z,48.67
2023-05-14T11:43:29.539Z,50.61
2023-05-14T11:45:57.332Z,50.23
2023-05-14T11:48:24.088Z,49.10
2023-05-14T11:50:52.882Z,48.74
2023-05-14T11:53:28.077Z,48.43
2023-05-14T11:55:55.239Z,47.38
2023-05-14T11:58:21.979Z,48.02
2023-05-14T12:00:52.715Z,49.50
2023-05-14T12:03:26.790Z,50.34
2023-05-14T12:06:00.990Z,48.75
2023-05-14T12:08:31.962Z,50.51
2023-05-14T12:11:00.468Z,52.01
2023-05-14T12:13:30.859Z,51.12
2023-05-14T12:16:00.407Z,49.49
2023-05-14T12:18:31.837Z,49.28
2023-05-14T12:21:05.082Z,48.78
2023-05-14T12:23:32.497Z,46.61
2023-05-14T12:26:17.216Z,46.66
2023-05-14T12:28:47.697Z,46.91
2023-05-14T12:31:15.661Z,47.55
2023-05-14T12:33:42.138Z,47.51
2023-05-14T12:38:40.944Z,45.32
2023-05-14T12:41:07.428Z,45.21
2023-05-14T12:43:33.922Z,46.21
2023-05-14T12:46:00.488Z,45.78
2023-05-14T12:48:26.946Z,44.98
2023-05-14T12:50:53.429Z,44.69
2023-05-14T12:53:19.897Z,43.02
2023-05-14T12:55:46.644Z,43.58
2023-05-14T12:58:13.165Z,44.08
2023-05-14T13:00:39.741Z,42.65
2023-05-14T13:03:06.349Z,44.13
2023-05-14T13:05:33.297Z,43.79
2023-05-14T13:08:02.258Z,44.49
2023-05-14T13:10:28.747Z,45.55
2023-05-14T13:12:56.396Z,47.48
2023-05-14T13:15:23.341Z,45.85
2023-05-14T13:17:50.056Z,43.87
2023-05-14T13:20:18.257Z,46.61
2023-05-14T13:22:45.088Z,43.77
2023-05-14T13:25:11.601Z,44.08
2023-05-14T13:27:38.132Z,45.08
2023-05-14T13:30:04.961Z,43.59
2023-05-14T13:32:31.591Z,45.76
2023-05-14T13:34:58.117Z,43.80
2023-05-14T13:37:25.789Z,43.83
2023-05-14T13:39:52.348Z,42.05
2023-05-14T13:42:18.805Z,42.67
2023-05-14T13:44:45.321Z,42.19
2023-05-14T13:47:13.239Z,42.45
2023-05-14T13:49:40.727Z,44.33
2023-05-14T13:52:07.537Z,43.06
2023-05-14T13:54:35.684Z,42.58
2023-05-14T13:57:02.311Z,42.52
2023-05-14T13:59:28.919Z,42.31
2023-05-14T14:01:55.448Z,43.80
2023-05-14T14:04:22.208Z,44.47
2023-05-14T14:06:49.171Z,44.35
2023-05-14T14:09:15.891Z,44.19
2023-05-14T14:11:42.436Z,44.95
2023-05-14T14:14:10.542Z,44.81
2023-05-14T14:16:37.250Z,44.07
2023-05-14T14:19:03.980Z,43.83
2023-05-14T14:21:31.344Z,44.00
2023-05-14T14:23:57.956Z,45.13
2023-05-14T14:26:24.601Z,44.61
2023-05-14T14:28:51.373Z,43.70
2023-05-14T14:31:17.857Z,46.12
2023-05-14T14:33:44.344Z,43.37
2023-05-14T14:36:11.346Z,42.47
2023-05-14T14:38:39.400Z,43.42
2023-05-14T14:41:10.472Z,41.72
2023-05-14T14:43:38.243Z,41.87
2023-05-14T14:46:04.905Z,40.43
2023-05-14T14:48:37.841Z,40.82
2023-05-14T14:51:08.697Z,39.20
2023-05-14T14:53:36.775Z,40.90
2023-05-14T14:56:03.920Z,37.24
2023-05-14T14:58:31.324Z,38.19
2023-05-14T15:00:58.416Z,38.10
2023-05-14T15:03:25.633Z,39.54
2023-05-14T15:05:53.707Z,39.43
2023-05-14T15:08:27.584Z,37.94
2023-05-14T15:10:57.443Z,41.02
2023-05-14T15:13:24.765Z,40.66
2023-05-14T15:15:52.478Z,41.43
2023-05-14T15:18:19.158Z,42.40
2023-05-14T15:20:45.701Z,44.48
2023-05-14T15:23:12.218Z,43.89
2023-05-14T15:25:38.880Z,43.69
2023-05-14T15:28:08.585Z,42.66
2023-05-14T15:30:35.194Z,44.01
2023-05-14T15:33:01.907Z,44.06
2023-05-14T15:35:29.868Z,44.46
2023-05-14T15:37:59.174Z,44.95
2023-05-14T15:40:27.403Z,45.40
2023-05-14T15:42:54.052Z,47.32
2023-05-14T15:45:20.782Z,46.74
2023-05-14T15:47:50.856Z,47.15
2023-05-14T15:50:17.468Z,47.83
2023-05-14T15:52:44.010Z,47.41
2023-05-14T15:55:11.042Z,51.08
2023-05-14T15:57:37.712Z,48.36
2023-05-14T16:00:11.039Z,48.55
2023-05-14T16:02:38.746Z,48.52
2023-05-14T16:05:05.788Z,49.28
2023-05-14T16:07:33.055Z,49.26
2023-05-14T16:10:02.418Z,49.86
2023-05-14T16:12:30.603Z,50.54
2023-05-14T16:15:00.329Z,50.41
2023-05-14T16:17:28.136Z,51.47
2023-05-14T16:19:56.278Z,48.87
2023-05-14T16:22:23.225Z,48.22
2023-05-14T16:24:49.695Z,47.51
2023-05-14T16:27:18.396Z,49.81
2023-05-14T16:29:45.489Z,52.18
2023-05-14T16:32:14.893Z,53.72
2023-05-14T16:34:41.500Z,54.98
2023-05-14T16:37:08.190Z,54.91
2023-05-14T16:39:34.662Z,54.76
2023-05-14T16:42:03.501Z,55.07
2023-05-14T16:44:29.926Z,54.40
2023-05-14T16:46:56.408Z,53.77
2023-05-14T16:49:23.038Z,52.55
2023-05-14T16:51:49.819Z,52.86
2023-05-14T16:54:16.382Z,52.43
2023-05-14T16:56:48.236Z,52.87
2023-05-14T16:59:15.304Z,53.03
2023-05-14T17:01:42.885Z,54.20
2023-05-14T17:04:10.204Z,54.39
2023-05-14T17:06:37.088Z,54.22
2023-05-14T17:09:04.022Z,55.10
2023-05-14T17:11:33.365Z,55.92
2023-05-14T17:13:59.918Z,57.37
2023-05-14T17:16:27.184Z,57.96
2023-05-14T17:18:53.859Z,59.45
2023-05-14T17:21:20.437Z,61.87
2023-05-14T17:23:46.908Z,63.02
2023-05-14T17:26:13.377Z,63.47
2023-05-14T17:28:39.844Z,64.26
2023-05-14T17:31:06.510Z,65.37
2023-05-14T17:33:34.689Z,65.43
2023-05-14T17:36:01.252Z,65.75
2023-05-14T17:38:27.706Z,65.98
2023-05-14T17:40:57.085Z,66.66
2023-05-14T17:43:25.696Z,66.07
2023-05-14T17:45:54.346Z,66.29
2023-05-14T17:48:22.711Z,66.25
2023-05-14T17:50:49.318Z,66.09
2023-05-14T17:53:15.816Z,66.72
2023-05-14T17:55:43.646Z,66.97
2023-05-14T17:58:13.412Z,67.21
2023-05-14T18:00:40.353Z,67.72
2023-05-14T18:03:07.969Z,68.39
2023-05-14T18:05:34.981Z,68.55
2023-05-14T18:08:01.497Z,68.60
2023-05-14T18:10:29.514Z,69.06
2023-05-14T18:12:56.545Z,69.27
2023-05-14T18:15:25.934Z,69.89
2023-05-14T18:17:52.818Z,70.15
2023-05-14T18:20:19.696Z,70.42
2023-05-14T18:22:49.328Z,70.66
2023-05-14T18:25:21.478Z,70.93
2023-05-14T18:27:47.876Z,70.21
2023-05-14T18:30:15.931Z,71.57
2023-05-14T18:32:45.058Z,71.29
2023-05-14T18:35:13.096Z,71.69
2023-05-14T18:37:39.973Z,71.83
2023-05-14T18:40:07.403Z,72.13
2023-05-14T18:42:34.356Z,71.91
2023-05-14T18:45:01.700Z,72.32
2023-05-14T18:47:28.338Z,71.88
2023-05-14T18:49:57.719Z,71.49
2023-05-14T18:52:26.283Z,72.06
2023-05-14T18:54:53.864Z,71.75
2023-05-14T18:57:21.258Z,71.96
2023-05-14T18:59:47.823Z,72.20
2023-05-14T19:02:14.519Z,72.47
2023-05-14T19:04:51.065Z,72.41
2023-05-14T19:07:19.026Z,72.88
2023-05-14T19:09:45.613Z,72.38
2023-05-14T19:12:12.371Z,72.83
2023-05-14T19:14:38.816Z,72.98
2023-05-14T19:17:05.783Z,73.33
2023-05-14T19:19:32.733Z,73.34
2023-05-14T19:21:59.277Z,73.64
2023-05-14T19:24:25.877Z,74.85
2023-05-14T19:26:52.672Z,75.65
2023-05-14T19:29:19.277Z,75.81
2023-05-14T19:31:46.217Z,76.15
2023-05-14T19:34:12.996Z,76.40
2023-05-14T19:36:39.531Z,76.32
2023-05-14T19:39:06.138Z,75.90
2023-05-14T19:41:32.620Z,75.37
2023-05-14T19:44:02.189Z,74.96
2023-05-14T19:46:29.118Z,74.80
2023-05-14T19:48:55.852Z,74.65
2023-05-14T19:51:23.734Z,74.66
2023-05-14T19:53:50.259Z,75.06
2023-05-14T19:56:16.840Z,75.48
2023-05-14T19:58:44.631Z,75.54
2023-05-14T20:01:12.012Z,75.94
2023-05-14T20:03:38.796Z,76.07
2023-05-14T20:06:06.605Z,76.67
2023-05-14T20:08:33.333Z,76.59
2023-05-14T20:10:59.853Z,76.74
2023-05-14T20:13:26.281Z,77.31
2023-05-14T20:15:52.892Z,77.42
2023-05-14T20:18:19.340Z,77.54
2023-05-14T20:20:45.897Z,77.82
2023-05-14T20:23:12.448Z,77.77
2023-05-14T20:25:39.278Z,77.85
2023-05-14T20:28:05.766Z,77.71
2023-05-14T20:30:32.564Z,78.17
2023-05-14T20:32:59.557Z,78.43
2023-05-14T20:35:26.524Z,78.56
2023-05-14T20:37:56.309Z,78.67
2023-05-14T20:40:22.885Z,78.31
2023-05-14T20:42:50.444Z,78.57
2023-05-14T20:45:17.031Z,78.65
2023-05-14T20:47:43.512Z,78.66
2023-05-14T20:50:10.233Z,78.65
2023-05-14T20:52:36.757Z,78.68
2023-05-14T20:55:03.406Z,78.90
2023-05-14T20:57:30.283Z,79.08
2023-05-14T20:59:56.882Z,79.05
2023-05-14T21:02:23.549Z,79.24
2023-05-14T21:04:50.829Z,79.25
2023-05-14T21:07:17.484Z,78.96
2023-05-14T21:09:46.483Z,79.41
2023-05-14T21:12:12.958Z,79.44
2023-05-14T21:14:39.423Z,79.47
2023-05-14T21:17:06.110Z,78.90
2023-05-14T21:19:32.848Z,79.55
2023-05-14T21:21:59.438Z,79.55
2023-05-14T21:24:25.893Z,79.59
2023-05-14T21:26:53.699Z,79.67
2023-05-14T21:29:20.286Z,80.01
2023-05-14T21:31:48.483Z,80.03
2023-05-14T21:34:14.974Z,80.40
2023-05-14T21:36:41.659Z,80.15
2023-05-14T21:39:08.105Z,80.41
2023-05-14T21:41:34.560Z,80.69
2023-05-14T21:44:01.081Z,80.57
2023-05-14T21:46:28.967Z,81.01
2023-05-14T21:48:56.516Z,80.71
2023-05-14T21:51:23.129Z,80.89
2023-05-14T21:53:49.911Z,81.26
2023-05-14T21:56:16.554Z,81.75
2023-05-14T21:58:44.212Z,81.56
2023-05-14T22:01:11.547Z,81.85
2023-05-14T22:03:38.517Z,81.98
2023-05-14T22:06:06.808Z,81.90
2023-05-14T22:08:33.435Z,81.97
2023-05-14T22:10:59.918Z,82.08
2023-05-14T22:13:26.454Z,82.44
2023-05-14T22:16:01.499Z,82.36
2023-05-14T22:18:38.650Z,82.19
2023-05-14T22:21:05.301Z,82.70
2023-05-14T22:23:34.429Z,82.28
2023-05-14T22:26:01.075Z,82.92
2023-05-14T22:28:27.577Z,82.95
2023-05-14T22:30:54.396Z,82.97
2023-05-14T22:33:20.968Z,82.68
2023-05-14T22:35:48.989Z,82.92
2023-05-14T22:38:15.677Z,83.02
2023-05-14T22:40:42.433Z,82.78
2023-05-14T22:43:08.896Z,82.55
2023-05-14T22:45:35.904Z,82.67
2023-05-14T22:48:02.487Z,83.39
2023-05-14T22:50:28.969Z,83.08
2023-05-14T22:52:55.409Z,83.19
2023-05-14T22:55:21.924Z,82.74
2023-05-14T22:57:48.437Z,83.54
2023-05-14T23:00:15.612Z,83.34
2023-05-14T23:02:42.404Z,83.01
2023-05-14T23:05:09.426Z,83.22
2023-05-14T23:07:37.436Z,83.57
2023-05-14T23:10:04.240Z,83.51
2023-05-14T23:12:30.706Z,83.35
2023-05-14T23:14:59.167Z,83.73
2023-05-14T23:17:28.827Z,83.73
2023-05-14T23:19:55.549Z,83.40
2023-05-14T23:22:22.238Z,83.55
2023-05-14T23:24:48.920Z,83.86
2023-05-14T23:27:15.549Z,83.93
2023-05-14T23:29:42.090Z,83.99
2023-05-14T23:32:09.118Z,83.20
2023-05-14T23:34:35.921Z,83.73
2023-05-14T23:37:02.515Z,83.93
2023-05-14T23:39:33.549Z,84.02
2023-05-14T23:42:00.166Z,84.17
2023-05-14T23:44:26.787Z,84.09
2023-05-14T23:46:53.614Z,83.83
2023-05-14T23:49:20.278Z,83.75
2023-05-14T23:51:46.886Z,84.08
2023-05-14T23:54:13.420Z,83.99
2023-05-14T23:56:40.563Z,83.61
2023-05-14T23:59:07.268Z,83.72
